sensor_id;sensor_type;location;lat;lon;timestamp;pressure;altitude;pressure_sealevel;temperature;humidity
61528;BME280;47395;42.032;-8.634;2023-08-30T00:00:05;75921.63;;;-148.63;55.70
61528;BME280;47395;42.032;-8.634;2023-08-30T00:02:07;75923.63;;;-148.63;55.64
61528;BME280;47395;42.032;-8.634;2023-08-30T00:04:09;75925.63;;;-148.63;55.58
61528;BME280;47395;42.032;-8.634;2023-08-30T00:06:10;75915.63;;;-148.63;55.70
61528;BME280;47395;42.032;-8.634;2023-08-30T00:08:11;75917.63;;;-148.63;55.53
61528;BME280;47395;42.032;-8.634;2023-08-30T00:10:13;75923.63;;;-148.63;55.33
61528;BME280;47395;42.032;-8.634;2023-08-30T00:12:15;75931.66;;;-148.63;55.62
61528;BME280;47395;42.032;-8.634;2023-08-30T00:14:16;75925.63;;;-148.63;55.42
61528;BME280;47395;42.032;-8.634;2023-08-30T00:16:17;75933.66;;;-148.63;55.86
61528;BME280;47395;42.032;-8.634;2023-08-30T00:18:18;75937.66;;;-148.63;55.52
61528;BME280;47395;42.032;-8.634;2023-08-30T00:20:19;75941.66;;;-148.63;55.61
61528;BME280;47395;42.032;-8.634;2023-08-30T00:22:21;75931.66;;;-148.63;55.47
61528;BME280;47395;42.032;-8.634;2023-08-30T00:24:22;75937.66;;;-148.63;55.67
61528;BME280;47395;42.032;-8.634;2023-08-30T00:26:23;75935.66;;;-148.63;55.66
61528;BME280;47395;42.032;-8.634;2023-08-30T00:28:24;75939.66;;;-148.63;55.35
61528;BME280;47395;42.032;-8.634;2023-08-30T00:30:24;75951.66;;;-148.63;55.72
61528;BME280;47395;42.032;-8.634;2023-08-30T00:32:25;75947.66;;;-148.63;55.43
61528;BME280;47395;42.032;-8.634;2023-08-30T00:34:26;75941.66;;;-148.63;55.52
61528;BME280;47395;42.032;-8.634;2023-08-30T00:36:27;75951.66;;;-148.63;55.55
61528;BME280;47395;42.032;-8.634;2023-08-30T00:38:28;75945.66;;;-148.63;55.34
61528;BME280;47395;42.032;-8.634;2023-08-30T00:40:29;75953.66;;;-148.63;55.26
61528;BME280;47395;42.032;-8.634;2023-08-30T00:42:37;75957.66;;;-148.63;55.72
61528;BME280;47395;42.032;-8.634;2023-08-30T00:44:41;75961.66;;;-148.63;55.45
61528;BME280;47395;42.032;-8.634;2023-08-30T00:46:42;75965.66;;;-148.63;55.46
61528;BME280;47395;42.032;-8.634;2023-08-30T00:48:43;75961.66;;;-148.63;55.69
61528;BME280;47395;42.032;-8.634;2023-08-30T00:50:45;75949.66;;;-148.63;55.50
61528;BME280;47395;42.032;-8.634;2023-08-30T00:52:47;75943.66;;;-148.63;55.52
61528;BME280;47395;42.032;-8.634;2023-08-30T00:54:49;75939.66;;;-148.63;55.28
61528;BME280;47395;42.032;-8.634;2023-08-30T00:56:49;75941.66;;;-148.63;55.43
61528;BME280;47395;42.032;-8.634;2023-08-30T00:58:51;75937.66;;;-148.63;55.17
61528;BME280;47395;42.032;-8.634;2023-08-30T01:00:52;75935.66;;;-148.63;55.39
61528;BME280;47395;42.032;-8.634;2023-08-30T01:02:55;75933.66;;;-148.63;55.24
61528;BME280;47395;42.032;-8.634;2023-08-30T01:04:55;75933.66;;;-148.63;55.13
61528;BME280;47395;42.032;-8.634;2023-08-30T01:06:56;75943.66;;;-148.63;55.26
61528;BME280;47395;42.032;-8.634;2023-08-30T01:08:58;75959.66;;;-148.63;55.41
61528;BME280;47395;42.032;-8.634;2023-08-30T01:11:08;75971.66;;;-148.63;55.74
61528;BME280;47395;42.032;-8.634;2023-08-30T01:13:18;75985.66;;;-148.63;55.98
61528;BME280;47395;42.032;-8.634;2023-08-30T01:15:21;75987.66;;;-148.63;56.20
61528;BME280;47395;42.032;-8.634;2023-08-30T01:17:23;75997.66;;;-148.63;56.58
61528;BME280;47395;42.032;-8.634;2023-08-30T01:20:00;76005.66;;;-148.63;56.40
61528;BME280;47395;42.032;-8.634;2023-08-30T01:25:24;76023.69;;;-148.63;56.95
61528;BME280;47395;42.032;-8.634;2023-08-30T01:27:29;76027.69;;;-148.63;57.16
61528;BME280;47395;42.032;-8.634;2023-08-30T01:29:33;76037.69;;;-148.63;57.52
61528;BME280;47395;42.032;-8.634;2023-08-30T01:31:38;76037.69;;;-148.63;57.49
61528;BME280;47395;42.032;-8.634;2023-08-30T01:33:41;76043.69;;;-148.63;57.73
61528;BME280;47395;42.032;-8.634;2023-08-30T01:35:43;76049.69;;;-148.63;57.89
61528;BME280;47395;42.032;-8.634;2023-08-30T01:37:45;76057.69;;;-148.63;58.19
61528;BME280;47395;42.032;-8.634;2023-08-30T01:39:46;76059.69;;;-148.63;58.18
61528;BME280;47395;42.032;-8.634;2023-08-30T01:41:48;76073.69;;;-148.63;58.34
61528;BME280;47395;42.032;-8.634;2023-08-30T01:43:49;76071.69;;;-148.63;58.65
61528;BME280;47395;42.032;-8.634;2023-08-30T01:45:53;76073.69;;;-148.63;58.20
61528;BME280;47395;42.032;-8.634;2023-08-30T01:47:55;76079.69;;;-148.63;58.21
61528;BME280;47395;42.032;-8.634;2023-08-30T01:49:57;76081.69;;;-148.63;58.47
61528;BME280;47395;42.032;-8.634;2023-08-30T01:51:59;76085.72;;;-148.63;58.24
61528;BME280;47395;42.032;-8.634;2023-08-30T01:54:02;76089.72;;;-148.63;58.45
61528;BME280;47395;42.032;-8.634;2023-08-30T01:56:04;76101.72;;;-148.63;58.40
61528;BME280;47395;42.032;-8.634;2023-08-30T01:58:06;76103.72;;;-148.63;58.73
61528;BME280;47395;42.032;-8.634;2023-08-30T02:00:07;76105.72;;;-148.63;58.79
61528;BME280;47395;42.032;-8.634;2023-08-30T02:02:16;76101.72;;;-148.63;58.77
61528;BME280;47395;42.032;-8.634;2023-08-30T02:04:17;76101.72;;;-148.63;58.70
61528;BME280;47395;42.032;-8.634;2023-08-30T02:06:23;76103.72;;;-148.63;58.82
61528;BME280;47395;42.032;-8.634;2023-08-30T02:08:29;76101.72;;;-148.63;58.92
61528;BME280;47395;42.032;-8.634;2023-08-30T02:10:35;76103.72;;;-148.63;58.71
61528;BME280;47395;42.032;-8.634;2023-08-30T02:12:48;76105.72;;;-148.63;58.17
61528;BME280;47395;42.032;-8.634;2023-08-30T02:14:50;76105.72;;;-148.63;58.36
61528;BME280;47395;42.032;-8.634;2023-08-30T02:16:51;76101.72;;;-148.63;58.45
61528;BME280;47395;42.032;-8.634;2023-08-30T02:18:52;76099.72;;;-148.63;58.19
61528;BME280;47395;42.032;-8.634;2023-08-30T02:20:53;76105.72;;;-148.63;58.29
61528;BME280;47395;42.032;-8.634;2023-08-30T02:22:59;76107.72;;;-148.63;58.24
61528;BME280;47395;42.032;-8.634;2023-08-30T02:25:01;76115.72;;;-148.63;58.24
61528;BME280;47395;42.032;-8.634;2023-08-30T02:27:05;76105.72;;;-148.63;58.30
61528;BME280;47395;42.032;-8.634;2023-08-30T02:29:07;76115.72;;;-148.63;58.43
61528;BME280;47395;42.032;-8.634;2023-08-30T02:31:12;76123.72;;;-148.63;58.72
61528;BME280;47395;42.032;-8.634;2023-08-30T02:33:13;76125.72;;;-148.63;58.50
61528;BME280;47395;42.032;-8.634;2023-08-30T02:35:14;76125.72;;;-148.63;58.47
61528;BME280;47395;42.032;-8.634;2023-08-30T02:37:15;76127.72;;;-148.63;58.51
61528;BME280;47395;42.032;-8.634;2023-08-30T02:39:16;76127.72;;;-148.63;58.93
61528;BME280;47395;42.032;-8.634;2023-08-30T02:41:18;76123.72;;;-148.63;58.52
61528;BME280;47395;42.032;-8.634;2023-08-30T02:43:19;76125.72;;;-148.63;58.59
61528;BME280;47395;42.032;-8.634;2023-08-30T02:45:20;76131.72;;;-148.63;58.88
61528;BME280;47395;42.032;-8.634;2023-08-30T02:47:21;76133.72;;;-148.63;58.60
61528;BME280;47395;42.032;-8.634;2023-08-30T02:49:21;76137.72;;;-148.63;59.08
61528;BME280;47395;42.032;-8.634;2023-08-30T02:51:22;76135.72;;;-148.63;59.36
61528;BME280;47395;42.032;-8.634;2023-08-30T02:53:24;76139.72;;;-148.63;59.72
61528;BME280;47395;42.032;-8.634;2023-08-30T02:55:25;76139.72;;;-148.63;59.83
61528;BME280;47395;42.032;-8.634;2023-08-30T02:57:26;76137.72;;;-148.63;59.95
61528;BME280;47395;42.032;-8.634;2023-08-30T02:59:27;76139.72;;;-148.63;60.16
61528;BME280;47395;42.032;-8.634;2023-08-30T03:01:27;76139.72;;;-148.63;60.38
61528;BME280;47395;42.032;-8.634;2023-08-30T03:03:28;76139.72;;;-148.63;60.57
61528;BME280;47395;42.032;-8.634;2023-08-30T03:05:29;76129.72;;;-148.63;60.47
61528;BME280;47395;42.032;-8.634;2023-08-30T03:07:30;76125.72;;;-148.63;60.47
61528;BME280;47395;42.032;-8.634;2023-08-30T03:09:31;76129.72;;;-148.63;60.46
61528;BME280;47395;42.032;-8.634;2023-08-30T03:11:32;76129.72;;;-148.63;60.71
61528;BME280;47395;42.032;-8.634;2023-08-30T03:13:33;76123.72;;;-148.63;60.78
61528;BME280;47395;42.032;-8.634;2023-08-30T03:15:34;76103.72;;;-148.63;60.31
61528;BME280;47395;42.032;-8.634;2023-08-30T03:17:35;76105.72;;;-148.63;60.46
61528;BME280;47395;42.032;-8.634;2023-08-30T03:19:37;76095.72;;;-148.63;59.91
61528;BME280;47395;42.032;-8.634;2023-08-30T03:21:37;76069.69;;;-148.63;59.86
61528;BME280;47395;42.032;-8.634;2023-08-30T03:23:39;76073.69;;;-148.63;59.95
61528;BME280;47395;42.032;-8.634;2023-08-30T03:25:40;76061.69;;;-148.63;59.37
61528;BME280;47395;42.032;-8.634;2023-08-30T03:27:43;76057.69;;;-148.63;59.17
61528;BME280;47395;42.032;-8.634;2023-08-30T03:29:44;76041.69;;;-148.63;59.48
61528;BME280;47395;42.032;-8.634;2023-08-30T03:31:44;76037.69;;;-148.63;59.24
61528;BME280;47395;42.032;-8.634;2023-08-30T03:33:46;76011.69;;;-148.63;59.04
61528;BME280;47395;42.032;-8.634;2023-08-30T03:35:47;76025.69;;;-148.63;58.67
61528;BME280;47395;42.032;-8.634;2023-08-30T03:37:48;76001.66;;;-148.63;58.61
61528;BME280;47395;42.032;-8.634;2023-08-30T03:39:49;76025.69;;;-148.63;58.42
61528;BME280;47395;42.032;-8.634;2023-08-30T03:41:50;76005.66;;;-148.63;58.15
61528;BME280;47395;42.032;-8.634;2023-08-30T03:43:51;76005.66;;;-148.63;58.23
61528;BME280;47395;42.032;-8.634;2023-08-30T03:45:53;76007.66;;;-148.63;58.33
61528;BME280;47395;42.032;-8.634;2023-08-30T03:47:54;75999.66;;;-148.63;58.07
61528;BME280;47395;42.032;-8.634;2023-08-30T03:49:54;75981.66;;;-148.63;58.06
61528;BME280;47395;42.032;-8.634;2023-08-30T03:51:55;76001.66;;;-148.63;57.92
61528;BME280;47395;42.032;-8.634;2023-08-30T03:53:57;75993.66;;;-148.63;57.76
61528;BME280;47395;42.032;-8.634;2023-08-30T03:55:58;75995.66;;;-148.63;58.13
61528;BME280;47395;42.032;-8.634;2023-08-30T03:57:59;75999.66;;;-148.63;57.94
61528;BME280;47395;42.032;-8.634;2023-08-30T04:00:00;75995.66;;;-148.63;58.33
61528;BME280;47395;42.032;-8.634;2023-08-30T04:04:27;75995.66;;;-148.63;57.25
61528;BME280;47395;42.032;-8.634;2023-08-30T04:06:28;75989.66;;;-148.63;57.17
61528;BME280;47395;42.032;-8.634;2023-08-30T04:08:29;75995.66;;;-148.63;57.13
61528;BME280;47395;42.032;-8.634;2023-08-30T04:10:37;76001.66;;;-148.63;57.29
61528;BME280;47395;42.032;-8.634;2023-08-30T04:12:38;76001.66;;;-148.63;57.38
61528;BME280;47395;42.032;-8.634;2023-08-30T04:14:40;76017.69;;;-148.63;57.38
61528;BME280;47395;42.032;-8.634;2023-08-30T04:16:41;76017.69;;;-148.63;57.46
61528;BME280;47395;42.032;-8.634;2023-08-30T04:18:44;76033.69;;;-148.63;57.83
61528;BME280;47395;42.032;-8.634;2023-08-30T04:20:46;76043.69;;;-148.63;58.17
61528;BME280;47395;42.032;-8.634;2023-08-30T04:22:47;76037.69;;;-148.63;57.86
61528;BME280;47395;42.032;-8.634;2023-08-30T04:24:48;76045.69;;;-148.63;57.89
61528;BME280;47395;42.032;-8.634;2023-08-30T04:26:51;76053.69;;;-148.63;57.98
61528;BME280;47395;42.032;-8.634;2023-08-30T04:28:53;76071.69;;;-148.63;58.16
61528;BME280;47395;42.032;-8.634;2023-08-30T04:30:56;76073.69;;;-148.63;58.16
61528;BME280;47395;42.032;-8.634;2023-08-30T04:32:58;76073.69;;;-148.63;57.89
61528;BME280;47395;42.032;-8.634;2023-08-30T04:34:59;76077.69;;;-148.63;57.99
61528;BME280;47395;42.032;-8.634;2023-08-30T04:37:01;76085.72;;;-148.63;57.91
61528;BME280;47395;42.032;-8.634;2023-08-30T04:39:01;76089.72;;;-148.63;58.11
61528;BME280;47395;42.032;-8.634;2023-08-30T04:41:04;76097.72;;;-148.63;58.00
61528;BME280;47395;42.032;-8.634;2023-08-30T04:43:09;76109.72;;;-148.63;58.14
61528;BME280;47395;42.032;-8.634;2023-08-30T04:45:10;76115.72;;;-148.63;58.61
61528;BME280;47395;42.032;-8.634;2023-08-30T04:47:11;76119.72;;;-148.63;58.83
61528;BME280;47395;42.032;-8.634;2023-08-30T04:49:13;76127.72;;;-148.63;58.78
61528;BME280;47395;42.032;-8.634;2023-08-30T04:51:14;76137.72;;;-148.63;58.89
61528;BME280;47395;42.032;-8.634;2023-08-30T04:53:15;76141.72;;;-148.63;59.08
61528;BME280;47395;42.032;-8.634;2023-08-30T04:55:17;76135.72;;;-148.63;59.04
61528;BME280;47395;42.032;-8.634;2023-08-30T04:57:18;76127.72;;;-148.63;59.02
61528;BME280;47395;42.032;-8.634;2023-08-30T04:59:20;76119.72;;;-148.63;58.83
61528;BME280;47395;42.032;-8.634;2023-08-30T05:01:22;76111.72;;;-148.63;58.75
61528;BME280;47395;42.032;-8.634;2023-08-30T05:03:26;76099.72;;;-148.63;58.41
61528;BME280;47395;42.032;-8.634;2023-08-30T05:05:30;76091.72;;;-148.63;58.26
61528;BME280;47395;42.032;-8.634;2023-08-30T05:07:32;76087.72;;;-148.63;58.19
61528;BME280;47395;42.032;-8.634;2023-08-30T05:09:33;76089.72;;;-148.63;58.08
61528;BME280;47395;42.032;-8.634;2023-08-30T05:11:36;76089.72;;;-148.63;58.02
61528;BME280;47395;42.032;-8.634;2023-08-30T05:13:38;76091.72;;;-148.63;58.08
61528;BME280;47395;42.032;-8.634;2023-08-30T05:15:40;76091.72;;;-148.63;57.97
61528;BME280;47395;42.032;-8.634;2023-08-30T05:17:41;76085.72;;;-148.63;58.04
61528;BME280;47395;42.032;-8.634;2023-08-30T05:19:42;76079.69;;;-148.63;58.01
61528;BME280;47395;42.032;-8.634;2023-08-30T05:21:44;76071.69;;;-148.63;58.08
61528;BME280;47395;42.032;-8.634;2023-08-30T05:23:45;76075.69;;;-148.63;58.16
61528;BME280;47395;42.032;-8.634;2023-08-30T05:25:48;76075.69;;;-148.63;58.02
61528;BME280;47395;42.032;-8.634;2023-08-30T05:27:51;76077.69;;;-148.63;57.81
61528;BME280;47395;42.032;-8.634;2023-08-30T05:29:53;76067.69;;;-148.63;57.98
61528;BME280;47395;42.032;-8.634;2023-08-30T05:31:54;76067.69;;;-148.63;57.74
61528;BME280;47395;42.032;-8.634;2023-08-30T05:34:13;76061.69;;;-148.63;57.87
61528;BME280;47395;42.032;-8.634;2023-08-30T05:36:39;76063.69;;;-148.63;57.54
61528;BME280;47395;42.032;-8.634;2023-08-30T05:38:59;76061.69;;;-148.63;57.63
61528;BME280;47395;42.032;-8.634;2023-08-30T05:41:23;76071.69;;;-148.63;57.54
61528;BME280;47395;42.032;-8.634;2023-08-30T05:43:27;76067.69;;;-148.63;57.45
61528;BME280;47395;42.032;-8.634;2023-08-30T05:45:28;76083.72;;;-148.63;57.52
61528;BME280;47395;42.032;-8.634;2023-08-30T05:47:29;76087.72;;;-148.63;57.45
61528;BME280;47395;42.032;-8.634;2023-08-30T05:49:30;76099.72;;;-148.63;57.72
61528;BME280;47395;42.032;-8.634;2023-08-30T05:51:31;76105.72;;;-148.63;57.63
61528;BME280;47395;42.032;-8.634;2023-08-30T05:53:32;76115.72;;;-148.63;57.62
61528;BME280;47395;42.032;-8.634;2023-08-30T05:55:33;76117.72;;;-148.63;57.65
61528;BME280;47395;42.032;-8.634;2023-08-30T05:57:34;76123.72;;;-148.63;57.47
61528;BME280;47395;42.032;-8.634;2023-08-30T05:59:35;76123.72;;;-148.63;57.67
61528;BME280;47395;42.032;-8.634;2023-08-30T06:01:37;76129.72;;;-148.63;57.72
61528;BME280;47395;42.032;-8.634;2023-08-30T06:03:38;76129.72;;;-148.63;58.03
61528;BME280;47395;42.032;-8.634;2023-08-30T06:05:39;76131.72;;;-148.63;58.02
61528;BME280;47395;42.032;-8.634;2023-08-30T06:07:40;76133.72;;;-148.63;57.90
61528;BME280;47395;42.032;-8.634;2023-08-30T06:09:42;76135.72;;;-148.63;57.92
61528;BME280;47395;42.032;-8.634;2023-08-30T06:11:42;76129.72;;;-148.63;57.68
61528;BME280;47395;42.032;-8.634;2023-08-30T06:13:43;76129.72;;;-148.63;57.55
61528;BME280;47395;42.032;-8.634;2023-08-30T06:15:45;76127.72;;;-148.63;57.62
61528;BME280;47395;42.032;-8.634;2023-08-30T06:17:47;76125.72;;;-148.63;57.40
61528;BME280;47395;42.032;-8.634;2023-08-30T06:19:48;76113.72;;;-148.63;57.24
61528;BME280;47395;42.032;-8.634;2023-08-30T06:21:49;76111.72;;;-148.63;57.14
61528;BME280;47395;42.032;-8.634;2023-08-30T06:23:50;76111.72;;;-148.63;56.83
61528;BME280;47395;42.032;-8.634;2023-08-30T06:25:57;76109.72;;;-148.63;56.83
61528;BME280;47395;42.032;-8.634;2023-08-30T06:27:58;76103.72;;;-148.63;56.60
61528;BME280;47395;42.032;-8.634;2023-08-30T06:30:00;76095.72;;;-148.63;56.51
61528;BME280;47395;42.032;-8.634;2023-08-30T06:32:00;76097.72;;;-148.63;56.65
61528;BME280;47395;42.032;-8.634;2023-08-30T06:34:02;76045.69;;;-148.63;55.89
61528;BME280;47395;42.032;-8.634;2023-08-30T06:36:03;75997.66;;;-148.63;54.71
61528;BME280;47395;42.032;-8.634;2023-08-30T06:38:05;75943.66;;;-148.63;53.27
61528;BME280;47395;42.032;-8.634;2023-08-30T06:40:07;75877.63;;;-148.63;52.11
61528;BME280;47395;42.032;-8.634;2023-08-30T06:42:08;75829.59;;;-148.63;51.15
61528;BME280;47395;42.032;-8.634;2023-08-30T06:44:08;75793.59;;;-148.63;50.41
61528;BME280;47395;42.032;-8.634;2023-08-30T06:46:09;75735.56;;;-148.63;49.61
61528;BME280;47395;42.032;-8.634;2023-08-30T06:48:10;75677.56;;;-148.63;48.49
61528;BME280;47395;42.032;-8.634;2023-08-30T06:50:11;75619.53;;;-148.63;47.35
61528;BME280;47395;42.032;-8.634;2023-08-30T06:52:12;75547.50;;;-148.63;46.43
61528;BME280;47395;42.032;-8.634;2023-08-30T06:54:13;75485.50;;;-148.63;45.21
61528;BME280;47395;42.032;-8.634;2023-08-30T06:56:15;75459.47;;;-148.63;44.48
61528;BME280;47395;42.032;-8.634;2023-08-30T06:58:16;75353.47;;;-148.63;43.19
61528;BME280;47395;42.032;-8.634;2023-08-30T07:00:17;75279.44;;;-148.63;42.05
61528;BME280;47395;42.032;-8.634;2023-08-30T07:02:18;75255.44;;;-148.63;41.68
61528;BME280;47395;42.032;-8.634;2023-08-30T07:04:19;75153.41;;;-148.63;40.42
61528;BME280;47395;42.032;-8.634;2023-08-30T07:06:20;75101.41;;;-148.63;39.26
61528;BME280;47395;42.032;-8.634;2023-08-30T07:08:21;75037.38;;;-148.63;38.75
61528;BME280;47395;42.032;-8.634;2023-08-30T07:10:22;74951.38;;;-148.63;37.34
61528;BME280;47395;42.032;-8.634;2023-08-30T07:12:23;74891.38;;;-148.63;36.66
61528;BME280;47395;42.032;-8.634;2023-08-30T07:14:26;74779.34;;;-148.63;35.74
61528;BME280;47395;42.032;-8.634;2023-08-30T07:16:26;74803.34;;;-148.63;35.45
61528;BME280;47395;42.032;-8.634;2023-08-30T07:18:27;74727.34;;;-148.63;34.93
61528;BME280;47395;42.032;-8.634;2023-08-30T07:20:29;74621.34;;;-148.63;33.93
61528;BME280;47395;42.032;-8.634;2023-08-30T07:22:30;74541.34;;;-148.63;33.18
61528;BME280;47395;42.032;-8.634;2023-08-30T07:24:30;74499.34;;;-148.63;32.55
61528;BME280;47395;42.032;-8.634;2023-08-30T07:26:31;74505.34;;;-148.63;32.28
61528;BME280;47395;42.032;-8.634;2023-08-30T07:28:32;74489.34;;;-148.63;32.10
61528;BME280;47395;42.032;-8.634;2023-08-30T07:30:33;74523.34;;;-148.63;32.01
61528;BME280;47395;42.032;-8.634;2023-08-30T07:32:35;74495.34;;;-148.63;31.73
61528;BME280;47395;42.032;-8.634;2023-08-30T07:34:38;74581.34;;;-148.63;32.21
61528;BME280;47395;42.032;-8.634;2023-08-30T07:36:39;74625.34;;;-148.63;32.76
61528;BME280;47395;42.032;-8.634;2023-08-30T07:38:40;74539.34;;;-148.63;32.28
61528;BME280;47395;42.032;-8.634;2023-08-30T07:40:41;74603.34;;;-148.63;32.85
61528;BME280;47395;42.032;-8.634;2023-08-30T07:42:42;74511.34;;;-148.63;31.50
61528;BME280;47395;42.032;-8.634;2023-08-30T07:44:43;74543.34;;;-148.63;31.53
61528;BME280;47395;42.032;-8.634;2023-08-30T07:46:43;74561.34;;;-148.63;31.89
61528;BME280;47395;42.032;-8.634;2023-08-30T07:48:46;74509.34;;;-148.63;31.41
61528;BME280;47395;42.032;-8.634;2023-08-30T07:50:46;74505.34;;;-148.63;31.54
61528;BME280;47395;42.032;-8.634;2023-08-30T07:52:47;74559.34;;;-148.63;31.70
61528;BME280;47395;42.032;-8.634;2023-08-30T07:54:48;74469.34;;;-148.63;31.08
61528;BME280;47395;42.032;-8.634;2023-08-30T07:56:50;74389.31;;;-148.63;30.53
61528;BME280;47395;42.032;-8.634;2023-08-30T07:58:51;74273.34;;;-148.63;29.87
61528;BME280;47395;42.032;-8.634;2023-08-30T08:00:52;74327.31;;;-148.63;29.67
61528;BME280;47395;42.032;-8.634;2023-08-30T08:02:53;74207.34;;;-148.63;28.95
61528;BME280;47395;42.032;-8.634;2023-08-30T08:04:54;74099.34;;;-148.63;28.24
61528;BME280;47395;42.032;-8.634;2023-08-30T08:06:55;74273.34;;;-148.63;29.27
61528;BME280;47395;42.032;-8.634;2023-08-30T08:08:56;74135.34;;;-148.63;28.33
61528;BME280;47395;42.032;-8.634;2023-08-30T08:10:58;74015.34;;;-148.63;27.43
61528;BME280;47395;42.032;-8.634;2023-08-30T08:13:00;74011.34;;;-148.63;27.34
61528;BME280;47395;42.032;-8.634;2023-08-30T08:15:01;74091.34;;;-148.63;27.42
61528;BME280;47395;42.032;-8.634;2023-08-30T08:17:03;74129.34;;;-148.63;28.26
61528;BME280;47395;42.032;-8.634;2023-08-30T08:19:04;74221.31;;;-148.63;28.48
61528;BME280;47395;42.032;-8.634;2023-08-30T08:21:06;74189.34;;;-148.63;28.29
61528;BME280;47395;42.032;-8.634;2023-08-30T08:23:07;74125.34;;;-148.63;27.57
61528;BME280;47395;42.032;-8.634;2023-08-30T08:25:08;74059.34;;;-148.63;26.79
61528;BME280;47395;42.032;-8.634;2023-08-30T08:27:10;74043.34;;;-148.63;27.24
61528;BME280;47395;42.032;-8.634;2023-08-30T08:29:11;74105.34;;;-148.63;27.58
61528;BME280;47395;42.032;-8.634;2023-08-30T08:31:12;74129.34;;;-148.63;27.50
61528;BME280;47395;42.032;-8.634;2023-08-30T08:33:14;74261.31;;;-148.63;28.54
61528;BME280;47395;42.032;-8.634;2023-08-30T08:35:16;74205.34;;;-148.63;28.27
61528;BME280;47395;42.032;-8.634;2023-08-30T08:37:17;74237.31;;;-148.63;28.84
61528;BME280;47395;42.032;-8.634;2023-08-30T08:39:18;74175.34;;;-148.63;28.01
61528;BME280;47395;42.032;-8.634;2023-08-30T08:41:19;74095.34;;;-148.63;27.39
61528;BME280;47395;42.032;-8.634;2023-08-30T08:43:20;73979.34;;;-148.63;26.99
61528;BME280;47395;42.032;-8.634;2023-08-30T08:45:22;74029.34;;;-148.63;27.01
61528;BME280;47395;42.032;-8.634;2023-08-30T08:47:23;73909.34;;;-148.63;26.29
61528;BME280;47395;42.032;-8.634;2023-08-30T08:49:25;73829.34;;;-148.63;26.30
61528;BME280;47395;42.032;-8.634;2023-08-30T08:51:31;73833.34;;;-148.63;25.88
61528;BME280;47395;42.032;-8.634;2023-08-30T08:53:35;73765.38;;;-148.63;25.39
61528;BME280;47395;42.032;-8.634;2023-08-30T08:55:37;73677.38;;;-148.63;25.12
61528;BME280;47395;42.032;-8.634;2023-08-30T08:57:42;73797.38;;;-148.63;25.00
61528;BME280;47395;42.032;-8.634;2023-08-30T08:59:43;73715.38;;;-148.63;24.87
61528;BME280;47395;42.032;-8.634;2023-08-30T09:01:45;73727.38;;;-148.63;24.38
61528;BME280;47395;42.032;-8.634;2023-08-30T09:03:46;73681.38;;;-148.63;24.85
61528;BME280;47395;42.032;-8.634;2023-08-30T09:05:49;73721.38;;;-148.63;24.87
61528;BME280;47395;42.032;-8.634;2023-08-30T09:07:51;73893.34;;;-148.63;25.48
61528;BME280;47395;42.032;-8.634;2023-08-30T09:09:54;73873.34;;;-148.63;24.83
61528;BME280;47395;42.032;-8.634;2023-08-30T09:11:55;73959.34;;;-148.63;25.79
61528;BME280;47395;42.032;-8.634;2023-08-30T09:13:56;73809.38;;;-148.63;24.83
61528;BME280;47395;42.032;-8.634;2023-08-30T09:15:57;73801.38;;;-148.63;24.87
61528;BME280;47395;42.032;-8.634;2023-08-30T09:17:58;73711.38;;;-148.63;24.74
61528;BME280;47395;42.032;-8.634;2023-08-30T09:20:06;73797.38;;;-148.63;24.51
61528;BME280;47395;42.032;-8.634;2023-08-30T09:22:07;73769.38;;;-148.63;24.73
61528;BME280;47395;42.032;-8.634;2023-08-30T09:24:08;73805.38;;;-148.63;24.60
61528;BME280;47395;42.032;-8.634;2023-08-30T09:26:08;73851.34;;;-148.63;24.96
61528;BME280;47395;42.032;-8.634;2023-08-30T09:28:09;73805.38;;;-148.63;24.89
61528;BME280;47395;42.032;-8.634;2023-08-30T09:30:11;73773.38;;;-148.63;24.66
61528;BME280;47395;42.032;-8.634;2023-08-30T09:32:20;73819.38;;;-148.63;24.57
61528;BME280;47395;42.032;-8.634;2023-08-30T09:34:25;73735.38;;;-148.63;23.64
61528;BME280;47395;42.032;-8.634;2023-08-30T09:36:25;73823.38;;;-148.63;24.73
61528;BME280;47395;42.032;-8.634;2023-08-30T09:38:26;73715.38;;;-148.63;23.49
61528;BME280;47395;42.032;-8.634;2023-08-30T09:40:29;73753.38;;;-148.63;23.75
61528;BME280;47395;42.032;-8.634;2023-08-30T09:42:31;73601.41;;;-148.63;23.59
61528;BME280;47395;42.032;-8.634;2023-08-30T09:44:32;73629.41;;;-148.63;23.23
61528;BME280;47395;42.032;-8.634;2023-08-30T09:46:46;73795.38;;;-148.63;23.82
61528;BME280;47395;42.032;-8.634;2023-08-30T09:48:49;73975.34;;;-148.63;24.96
61528;BME280;47395;42.032;-8.634;2023-08-30T09:50:53;73989.34;;;-148.63;24.99
61528;BME280;47395;42.032;-8.634;2023-08-30T09:52:58;73919.34;;;-148.63;24.29
61528;BME280;47395;42.032;-8.634;2023-08-30T09:55:00;73891.34;;;-148.63;24.38
61528;BME280;47395;42.032;-8.634;2023-08-30T09:57:04;73851.34;;;-148.63;24.52
61528;BME280;47395;42.032;-8.634;2023-08-30T09:59:05;73677.38;;;-148.63;23.79
61528;BME280;47395;42.032;-8.634;2023-08-30T10:01:07;73641.38;;;-148.63;23.51
61528;BME280;47395;42.032;-8.634;2023-08-30T10:03:08;73489.41;;;-148.63;22.24
61528;BME280;47395;42.032;-8.634;2023-08-30T10:05:10;73625.41;;;-148.63;23.33
61528;BME280;47395;42.032;-8.634;2023-08-30T10:07:13;73649.38;;;-148.63;23.51
61528;BME280;47395;42.032;-8.634;2023-08-30T10:09:15;73611.41;;;-148.63;23.29
61528;BME280;47395;42.032;-8.634;2023-08-30T10:11:18;73553.41;;;-148.63;22.38
61528;BME280;47395;42.032;-8.634;2023-08-30T10:13:19;73465.44;;;-148.63;22.32
61528;BME280;47395;42.032;-8.634;2023-08-30T10:15:23;73347.44;;;-148.63;21.32
61528;BME280;47395;42.032;-8.634;2023-08-30T10:17:32;73355.44;;;-148.63;22.16
61528;BME280;47395;42.032;-8.634;2023-08-30T10:19:36;73373.44;;;-148.63;22.33
61528;BME280;47395;42.032;-8.634;2023-08-30T10:21:38;73349.44;;;-148.63;21.86
61528;BME280;47395;42.032;-8.634;2023-08-30T10:23:40;73439.44;;;-148.63;22.57
61528;BME280;47395;42.032;-8.634;2023-08-30T10:25:45;73475.44;;;-148.63;22.84
61528;BME280;47395;42.032;-8.634;2023-08-30T10:27:49;73409.44;;;-148.63;23.07